KBPG/BPG METAR and TAF weather

Enter ICAO airport designator
Station Type Date Time Source
KBPG METAR 2019/02/23 03:15 UTC NOAA

KBPG 230315Z AUTO 09015KT 10SM CLR 11/09 A2973 RMK AO2 T01130092


Station Type Date Time Source
KBPG Decoded METAR 2019/02/23 03:15 UTC NOAA

Big Spring, Big Spring McMahon-Wrinkle Airport, TX, United States (KBPG) 32-12N 101-31W
Feb 22, 2019 - 10:15 PM EST / 2019.02.23 0315 UTC
Wind: from the E (090 degrees) at 17 MPH (15 KT):0
Visibility: 10 mile(s):0
Sky conditions: clear
Temperature: 52.3 F (11.3 C)
Dew Point: 48.6 F (9.2 C)
Relative Humidity: 86%
Pressure (altimeter): 29.73 in. Hg (1006 hPa)
ob: KBPG 230315Z AUTO 09015KT 10SM CLR 11/09 A2973 RMK AO2 T01130092
cycle: 3

Station Type Date Time Source
KBPG TAF UTC NOAA

Error!


Example: see airport list